Aérodrome :
LOGIN :

S'inscrire | Disclaimer

   EN    FR    IT 

 










Légende :    VFR   VFR Marginal   IFR   IFR Intensif   IFR Très Intensif
Visi : 
Plafond : 
>= 8 km
>= 3000ft
5 à 8 km
1000 à 3000 ft
1500m à 5 km
500 à 1000 ft
800 à 1500m
200 à 500 ft
< 800m
< 200 ft
Symboles :   Orages  Brouillard  Fortes neiges  Fortes précipitations  Vent > 20 kt
SIGMETs :   Divers  Orages  Givrage  Turbulence  Onde Orograph.  Cendres Volcan.







- Altitude de l'aérodrome : 30 ft
- Code IATA : CFN


EIDL - Donegal

DERNIER METAR :
  • 181600Z 23010KT 8000 RA BKN006 OVC011 16/16 Q1013

METARs EXPIRÉS :
  • 181530Z 24014KT 9999 -RA OVC005 16/16 Q1013
  • 181500Z 24014KT 9999 -RA OVC005 16/16 Q1013
  • 181430Z 23014KT 6000 -RA OVC005 16/16 Q1013
  • 181400Z 24014KT 4100 BR OVC006 16/15 Q1013
  • 181330Z 24016KT 8000 OVC005 16/15 Q1013

TAF TAF EIDL
Valide du 18 à 15h jusqu'au 18 à 21h UTC


181400Z 1815/1821 24015KT 4000 BR -DZ BKN005
BECMG 1815/1818 21010KT
TEMPO 1815/1818 9999 NSW SCT005 BKN010
BECMG 1818/1821 12008KT
TEMPO 1818/1821 6000 RADZ BKN008
Pas de NOTAMs connus pour ce terrain.



MET'MAP, la Météo Aéronautique d'un coup d'oeil ! - Copyright ORBIFLY Décembre 2007 - Disclaimer

ORBIFLY MET'MAP TEAM :

Programmation & Développement : Alexandra Zaïnal
Conception & Développement : Baudouin d'Aumeries
Co-Programmation & Développement : Marc-Olivier Méhu
Soutien technique & logistique : Manuel Goepfert

Contact : metmap@orbifly.com




SOURCES & CREDITS :

   NOAA